Aérodrome :
LOGIN :

S'inscrire | Disclaimer

   EN    FR    IT 

 










Légende :    VFR   VFR Marginal   IFR   IFR Intensif   IFR Très Intensif
Visi : 
Plafond : 
>= 8 km
>= 3000ft
5 à 8 km
1000 à 3000 ft
1500m à 5 km
500 à 1000 ft
800 à 1500m
200 à 500 ft
< 800m
< 200 ft
Symboles :   Orages  Brouillard  Fortes neiges  Fortes précipitations  Vent > 20 kt
SIGMETs :   Divers  Orages  Givrage  Turbulence  Onde Orograph.  Cendres Volcan.







- Altitude de l'aérodrome : 147 ft
- Code IATA : DUS


EDDL - Düsseldorf Int.

DERNIER METAR :
  • 172050Z 21004KT 170V230 9999 FEW040 SCT210 BKN250 02/01 Q1026 NOSIG

METARs EXPIRÉS :
  • 172020Z VRB02KT CAVOK 03/01 Q1026 NOSIG
  • 171950Z 20003KT CAVOK 03/02 Q1026 NOSIG
  • 171920Z 14003KT 090V160 9999 FEW044 BKN220 02/00 Q1026 NOSIG
  • 171850Z VRB01KT CAVOK 02/01 Q1026 NOSIG
  • 171820Z VRB01KT 9999 FEW048 BKN270 03/02 Q1026 NOSIG

TAF TAF EDDL
Valide du 17 à 18h jusqu'au 19 à 00h UTC


171700Z 1718/1824 21003KT 9999 SCT035
BECMG 1805/1808 23013KT
TEMPO 1810/1816 26015G25KT
BECMG 1816/1818 27008KT
PROB40
TEMPO 1816/1820 SHRA BKN020TCU
Pas de NOTAMs connus pour ce terrain.



MET'MAP, la Météo Aéronautique d'un coup d'oeil ! - Copyright ORBIFLY Décembre 2007 - Disclaimer

ORBIFLY MET'MAP TEAM :

Programmation & Développement : Alexandra Zaïnal
Conception & Développement : Baudouin d'Aumeries
Co-Programmation & Développement : Marc-Olivier Méhu
Soutien technique & logistique : Manuel Goepfert

Contact : metmap@orbifly.com




SOURCES & CREDITS :

   NOAA